createdAt,value
2023-01-07T00:00:52.836Z,100874.41
2023-01-07T00:03:19.893Z,100868.06
2023-01-07T00:05:46.251Z,100875.75
2023-01-07T00:08:12.661Z,100885.75
2023-01-07T00:10:39.017Z,100885.75
2023-01-07T00:13:05.356Z,100878.41
2023-01-07T00:15:31.717Z,100884.72
2023-01-07T00:17:58.091Z,100878.22
2023-01-07T00:20:24.496Z,100876.22
2023-01-07T00:22:51.378Z,100872.22
2023-01-07T00:25:17.716Z,100863.69
2023-01-07T00:27:44.061Z,100871.69
2023-01-07T00:30:11.134Z,100875.38
2023-01-07T00:32:55.804Z,100870.34
2023-01-07T00:35:24.680Z,100865.00
2023-01-07T00:37:52.669Z,100862.16
2023-01-07T00:40:19.793Z,100858.50
2023-01-07T00:42:55.496Z,100861.00
2023-01-07T00:45:22.434Z,100860.16
2023-01-07T00:47:49.386Z,100855.31
2023-01-07T00:50:15.809Z,100855.66
2023-01-07T00:52:42.138Z,100850.66
2023-01-07T00:55:10.941Z,100849.19
2023-01-07T00:57:37.321Z,100857.00
2023-01-07T01:00:03.859Z,100848.81
2023-01-07T01:02:30.235Z,100845.66
2023-01-07T01:04:56.579Z,100841.97
2023-01-07T01:07:22.891Z,100839.81
2023-01-07T01:09:49.576Z,100839.81
2023-01-07T01:12:15.889Z,100828.97
2023-01-07T01:14:42.289Z,100830.97
2023-01-07T01:17:08.661Z,100829.47
2023-01-07T01:19:35.083Z,100826.97
2023-01-07T01:22:01.447Z,100830.63
2023-01-07T01:24:27.853Z,100828.13
2023-01-07T01:26:54.269Z,100830.63
2023-01-07T01:29:20.709Z,100825.97
2023-01-07T01:31:48.426Z,100826.63
2023-01-07T01:34:14.822Z,100829.78
2023-01-07T01:36:41.285Z,100831.78
2023-01-07T01:39:07.619Z,100830.63
2023-01-07T01:41:34.354Z,100837.66
2023-01-07T01:44:00.834Z,100828.97
2023-01-07T01:46:35.210Z,100819.28
2023-01-07T01:49:37.478Z,100818.97
2023-01-07T01:52:08.828Z,100812.44
2023-01-07T01:54:35.338Z,100818.78
2023-01-07T01:57:03.032Z,100808.63
2023-01-07T01:59:31.179Z,100809.47
2023-01-07T02:01:57.645Z,100813.09
2023-01-07T02:04:25.617Z,100809.47
2023-01-07T02:06:56.249Z,100803.28
2023-01-07T02:09:22.730Z,100801.94
2023-01-07T02:12:17.200Z,100806.75
2023-01-07T02:15:10.310Z,100797.94
2023-01-07T02:17:50.939Z,100799.59
2023-01-07T02:20:26.035Z,100799.59
2023-01-07T02:23:11.100Z,100794.56
2023-01-07T02:25:58.707Z,100798.75
2023-01-07T02:28:45.095Z,100792.25
2023-01-07T02:31:49.230Z,100796.06
2023-01-07T02:34:54.616Z,100785.88
2023-01-07T02:37:23.822Z,100790.72
2023-01-07T02:40:16.187Z,100791.56
2023-01-07T02:42:46.400Z,100779.38
2023-01-07T02:45:23.878Z,100778.22
2023-01-07T02:47:54.460Z,100778.88
2023-01-07T02:50:20.871Z,100776.88
2023-01-07T02:52:47.278Z,100771.88
2023-01-07T02:55:15.655Z,100765.53
2023-01-07T02:57:48.102Z,100769.53
2023-01-07T03:00:36.226Z,100766.22
2023-01-07T03:03:13.365Z,100770.22
2023-01-07T03:06:02.141Z,100770.03
2023-01-07T03:08:36.487Z,100765.84
2023-01-07T03:11:05.216Z,100761.84
2023-01-07T03:13:47.686Z,100756.50
2023-01-07T03:16:25.361Z,100755.16
2023-01-07T03:19:09.843Z,100745.47
2023-01-07T03:21:36.766Z,100748.13
2023-01-07T03:24:03.342Z,100748.81
2023-01-07T03:26:36.475Z,100747.66
2023-01-07T03:29:04.704Z,100756.63
2023-01-07T03:31:31.567Z,100749.97
2023-01-07T03:34:00.814Z,100759.81
2023-01-07T03:36:31.139Z,100750.47
2023-01-07T03:38:57.765Z,100748.31
2023-01-07T03:41:42.769Z,100747.47
2023-01-07T03:44:09.239Z,100742.97
2023-01-07T03:46:36.983Z,100742.44
2023-01-07T03:49:03.695Z,100753.97
2023-01-07T03:51:30.101Z,100744.94
2023-01-07T03:53:56.591Z,100738.25
2023-01-07T03:56:22.989Z,100733.94
2023-01-07T03:58:49.384Z,100736.78
2023-01-07T04:01:15.854Z,100737.09
2023-01-07T04:03:42.271Z,100731.44
2023-01-07T04:06:08.837Z,100726.91
2023-01-07T04:08:37.058Z,100728.09
2023-01-07T04:11:04.006Z,100722.75
2023-01-07T04:13:30.452Z,100722.41
2023-01-07T04:15:56.848Z,100719.91
2023-01-07T04:18:23.177Z,100724.41
2023-01-07T04:20:49.503Z,100711.75
2023-01-07T04:23:16.236Z,100713.75
2023-01-07T04:25:42.637Z,100712.88
2023-01-07T04:28:09.004Z,100702.72
2023-01-07T04:30:35.810Z,100694.22
2023-01-07T04:33:02.369Z,100698.84
2023-01-07T04:35:28.760Z,100691.38
2023-01-07T04:37:55.151Z,100693.19
2023-01-07T04:40:21.554Z,100691.38
2023-01-07T04:42:47.882Z,100693.69
2023-01-07T04:45:14.239Z,100688.34
2023-01-07T04:47:40.622Z,100690.34
2023-01-07T04:50:07.326Z,100683.34
2023-01-07T04:52:33.752Z,100689.31
2023-01-07T04:55:00.147Z,100677.00
2023-01-07T04:57:27.572Z,100677.00
2023-01-07T04:59:53.907Z,100673.66
2023-01-07T05:02:20.391Z,100667.50
2023-01-07T05:04:47.140Z,100666.66
2023-01-07T05:07:13.524Z,100652.81
2023-01-07T05:09:39.859Z,100654.16
2023-01-07T05:12:06.255Z,100657.81
2023-01-07T05:14:32.766Z,100656.47
2023-01-07T05:16:59.170Z,100644.81
2023-01-07T05:19:25.515Z,100646.31
2023-01-07T05:21:51.904Z,100646.31
2023-01-07T05:24:18.341Z,100647.16
2023-01-07T05:26:44.681Z,100645.50
2023-01-07T05:29:11.059Z,100640.00
2023-01-07T05:31:37.424Z,100636.16
2023-01-07T05:34:03.793Z,100641.16
2023-01-07T05:36:30.151Z,100649.97
2023-01-07T05:38:56.597Z,100631.34
2023-01-07T05:41:22.969Z,100634.50
2023-01-07T05:43:49.436Z,100630.13
2023-01-07T05:46:15.863Z,100630.97
2023-01-07T05:48:42.334Z,100634.97
2023-01-07T05:51:08.713Z,100627.31
2023-01-07T05:53:35.095Z,100626.13
2023-01-07T05:56:01.567Z,100633.34
2023-01-07T05:58:28.324Z,100626.47
2023-01-07T06:00:55.346Z,100618.16
2023-01-07T06:03:22.105Z,100606.63
2023-01-07T06:05:48.623Z,100615.13
2023-01-07T06:08:15.407Z,100599.78
2023-01-07T06:10:42.422Z,100616.28
2023-01-07T06:13:08.769Z,100613.31
2023-01-07T06:15:35.272Z,100604.63
2023-01-07T06:18:01.736Z,100603.66
2023-01-07T06:20:29.712Z,100601.28
2023-01-07T06:22:56.063Z,100601.28
2023-01-07T06:25:22.474Z,100592.97
2023-01-07T06:27:48.870Z,100592.13
2023-01-07T06:30:15.214Z,100595.47
2023-01-07T06:32:43.077Z,100579.28
2023-01-07T06:35:11.054Z,100580.78
2023-01-07T06:37:38.662Z,100568.44
2023-01-07T06:40:06.195Z,100579.44
2023-01-07T06:42:32.538Z,100578.94
2023-01-07T06:44:58.866Z,100579.44
2023-01-07T06:47:25.730Z,100573.59
2023-01-07T06:49:52.493Z,100573.47
2023-01-07T06:52:18.882Z,100575.97
2023-01-07T06:54:47.550Z,100577.44
2023-01-07T06:57:14.703Z,100574.44
2023-01-07T06:59:41.126Z,100565.75
2023-01-07T07:02:07.523Z,100565.59
2023-01-07T07:04:33.881Z,100551.78
2023-01-07T07:07:00.347Z,100551.91
2023-01-07T07:09:26.726Z,100555.09
2023-01-07T07:11:53.107Z,100553.59
2023-01-07T07:14:19.444Z,100550.25
2023-01-07T07:16:45.793Z,100545.94
2023-01-07T07:19:12.226Z,100541.59
2023-01-07T07:21:38.588Z,100546.09
2023-01-07T07:24:05.266Z,100536.25
2023-01-07T07:26:31.610Z,100538.13
2023-01-07T07:28:57.977Z,100537.28
2023-01-07T07:31:24.393Z,100541.94
2023-01-07T07:33:50.816Z,100536.91
2023-01-07T07:36:17.125Z,100540.25
2023-01-07T07:38:43.510Z,100535.28
2023-01-07T07:41:09.926Z,100537.75
2023-01-07T07:43:36.575Z,100533.75
2023-01-07T07:46:03.110Z,100532.94
2023-01-07T07:48:29.512Z,100538.44
2023-01-07T07:50:55.936Z,100534.78
2023-01-07T07:53:23.594Z,100530.78
2023-01-07T07:55:50.007Z,100529.44
2023-01-07T07:58:16.340Z,100529.94
2023-01-07T08:00:42.749Z,100526.44
2023-01-07T08:03:10.312Z,100519.44
2023-01-07T08:05:41.161Z,100518.28
2023-01-07T08:08:09.301Z,100525.63
2023-01-07T08:10:35.683Z,100521.63
2023-01-07T08:13:02.051Z,100512.09
2023-01-07T08:15:28.419Z,100515.94
2023-01-07T08:18:13.017Z,100511.94
2023-01-07T08:20:39.622Z,100508.13
2023-01-07T08:23:07.357Z,100504.59
2023-01-07T08:25:35.757Z,100502.78
2023-01-07T08:28:02.835Z,100490.59
2023-01-07T08:30:30.065Z,100497.31
2023-01-07T08:32:57.103Z,100492.94
2023-01-07T08:35:23.497Z,100491.78
2023-01-07T08:37:49.966Z,100491.78
2023-01-07T08:40:16.330Z,100492.63
2023-01-07T08:42:42.716Z,100494.28
2023-01-07T08:45:10.624Z,100494.28
2023-01-07T08:47:37.017Z,100493.63
2023-01-07T08:50:04.219Z,100482.28
2023-01-07T08:52:30.568Z,100476.63
2023-01-07T08:54:56.912Z,100480.13
2023-01-07T08:57:23.377Z,100473.28
2023-01-07T08:59:49.709Z,100471.94
2023-01-07T09:02:18.320Z,100468.59
2023-01-07T09:04:44.824Z,100465.22
2023-01-07T09:07:11.567Z,100457.72
2023-01-07T09:09:38.232Z,100457.91
2023-01-07T09:12:06.073Z,100454.56
2023-01-07T09:14:32.495Z,100457.22
2023-01-07T09:16:58.836Z,100446.00
2023-01-07T09:19:25.446Z,100445.19
2023-01-07T09:21:51.836Z,100443.53
2023-01-07T09:24:18.338Z,100449.84
2023-01-07T09:26:44.720Z,100449.34
2023-01-07T09:29:11.052Z,100438.84
2023-01-07T09:31:37.451Z,100448.69
2023-01-07T09:34:03.868Z,100443.00
2023-01-07T09:36:30.252Z,100436.81
2023-01-07T09:38:56.635Z,100434.81
2023-01-07T09:41:42.828Z,100438.16
2023-01-07T09:44:33.600Z,100439.34
2023-01-07T09:47:00.495Z,100432.31
2023-01-07T09:49:29.668Z,100428.47
2023-01-07T09:52:00.562Z,100430.47
2023-01-07T09:54:28.841Z,100428.47
2023-01-07T09:56:55.301Z,100423.81
2023-01-07T09:59:21.843Z,100424.25
2023-01-07T10:01:55.411Z,100421.44
2023-01-07T10:04:49.628Z,100417.91
2023-01-07T10:07:44.671Z,100418.91
2023-01-07T10:10:30.045Z,100411.72
2023-01-07T10:13:19.983Z,100403.84
2023-01-07T10:15:55.435Z,100401.16
2023-01-07T10:18:34.873Z,100407.81
2023-01-07T10:21:13.425Z,100398.63
2023-01-07T10:23:42.532Z,100386.22
2023-01-07T10:26:22.634Z,100384.56
2023-01-07T10:28:53.529Z,100385.38
2023-01-07T10:31:22.828Z,100376.50
2023-01-07T10:33:49.591Z,100371.09
2023-01-07T10:36:32.247Z,100364.41
2023-01-07T10:39:10.695Z,100362.38
2023-01-07T10:41:53.282Z,100361.34
2023-01-07T10:44:25.772Z,100357.47
2023-01-07T10:47:15.298Z,100355.59
2023-01-07T10:50:09.432Z,100342.25
2023-01-07T10:52:48.930Z,100341.66
2023-01-07T10:55:43.428Z,100339.50
2023-01-07T10:58:11.189Z,100334.47
2023-01-07T11:00:39.115Z,100333.63
2023-01-07T11:03:15.740Z,100316.75
2023-01-07T11:05:42.090Z,100317.22
2023-01-07T11:08:16.349Z,100312.00
2023-01-07T11:10:42.794Z,100309.94
2023-01-07T11:13:16.623Z,100315.25
2023-01-07T11:15:56.215Z,100303.19
2023-01-07T11:18:30.380Z,100295.38
2023-01-07T11:20:58.229Z,100297.03
2023-01-07T11:23:27.541Z,100284.75
2023-01-07T11:25:54.733Z,100273.88
2023-01-07T11:28:26.642Z,100265.69
2023-01-07T11:31:00.915Z,100270.88
2023-01-07T11:34:01.267Z,100257.50
2023-01-07T11:36:17.243Z,100248.16
2023-01-07T11:38:44.499Z,100249.81
2023-01-07T11:41:23.963Z,100244.97
2023-01-07T11:43:53.341Z,100241.28
2023-01-07T11:46:23.424Z,100235.13
2023-01-07T11:48:58.033Z,100230.75
2023-01-07T11:51:24.836Z,100232.41
2023-01-07T11:53:59.254Z,100223.41
2023-01-07T11:56:28.157Z,100222.22
2023-01-07T11:59:25.995Z,100218.06
2023-01-07T12:01:59.237Z,100216.91
2023-01-07T12:04:29.408Z,100205.03
2023-01-07T12:07:24.187Z,100204.56
2023-01-07T12:09:50.697Z,100203.28
2023-01-07T12:12:39.166Z,100190.72
2023-01-07T12:15:21.642Z,100191.09
2023-01-07T12:17:52.397Z,100181.72
2023-01-07T12:20:37.206Z,100180.91
2023-01-07T12:23:21.575Z,100176.03
2023-01-07T12:25:52.469Z,100175.91
2023-01-07T12:28:36.460Z,100173.91
2023-01-07T12:31:05.767Z,100172.72
2023-01-07T12:33:47.374Z,100168.22
2023-01-07T12:36:19.943Z,100157.56
2023-01-07T12:38:55.390Z,100159.56
2023-01-07T12:41:32.493Z,100155.06
2023-01-07T12:44:20.279Z,100142.38
2023-01-07T12:47:30.447Z,100150.56
2023-01-07T12:50:11.433Z,100144.78
2023-01-07T12:52:44.787Z,100133.75
2023-01-07T12:55:21.303Z,100125.59
2023-01-07T12:58:11.873Z,100126.41
2023-01-07T13:00:52.924Z,100121.91
2023-01-07T13:03:31.708Z,100119.44
2023-01-07T13:06:14.417Z,100112.44
2023-01-07T13:08:42.958Z,100113.63
2023-01-07T13:11:16.152Z,100112.78
2023-01-07T13:13:47.332Z,100107.09
2023-01-07T13:16:13.907Z,100110.28
2023-01-07T13:18:40.369Z,100091.25
2023-01-07T13:21:10.513Z,100100.94
2023-01-07T13:24:07.704Z,100103.34
2023-01-07T13:26:56.420Z,100092.81
2023-01-07T13:29:37.881Z,100089.97
2023-01-07T13:32:10.306Z,100086.63
2023-01-07T13:35:09.233Z,100080.22
2023-01-07T13:37:57.759Z,100083.06
2023-01-07T13:40:40.464Z,100094.81
2023-01-07T13:43:29.277Z,100085.91
2023-01-07T13:45:59.209Z,100082.25
2023-01-07T13:48:27.365Z,100088.31
2023-01-07T13:51:00.641Z,100078.59
2023-01-07T13:53:26.902Z,100079.88
2023-01-07T13:55:57.719Z,100075.03
2023-01-07T13:58:30.169Z,100077.03
2023-01-07T14:01:04.725Z,100068.16
2023-01-07T14:03:44.223Z,100075.88
2023-01-07T14:06:19.927Z,100077.88
2023-01-07T14:08:53.208Z,100077.53
2023-01-07T14:11:41.998Z,100072.53
2023-01-07T14:14:32.865Z,100068.53
2023-01-07T14:17:19.220Z,100067.69
2023-01-07T14:20:00.606Z,100065.81
2023-01-07T14:22:45.630Z,100061.66
2023-01-07T14:25:28.252Z,100066.03
2023-01-07T14:28:13.261Z,100064.84
2023-01-07T14:30:48.042Z,100053.84
2023-01-07T14:33:20.593Z,100054.31
2023-01-07T14:36:06.285Z,100057.16
2023-01-07T14:38:32.722Z,100047.72
2023-01-07T14:41:16.088Z,100045.72
2023-01-07T14:43:48.479Z,100048.91
2023-01-07T14:46:24.157Z,100046.06
2023-01-07T14:49:02.873Z,100044.88
2023-01-07T14:51:56.558Z,100037.88
2023-01-07T14:54:59.458Z,100037.06
2023-01-07T14:57:51.038Z,100032.22
2023-01-07T15:00:55.344Z,100024.75
2023-01-07T15:03:42.954Z,100026.03
2023-01-07T15:06:25.031Z,100012.91
2023-01-07T15:09:29.738Z,100025.91
2023-01-07T15:12:18.353Z,100014.91
2023-01-07T15:15:19.254Z,100017.75
2023-01-07T15:17:45.692Z,100024.25
2023-01-07T15:20:12.130Z,100025.22
2023-01-07T15:23:10.656Z,100024.66
2023-01-07T15:26:00.631Z,100033.75
2023-01-07T15:28:43.724Z,100032.34
2023-01-07T15:31:22.763Z,100023.91
2023-01-07T15:33:59.221Z,100032.06
2023-01-07T15:36:25.973Z,100033.25
2023-01-07T15:38:53.783Z,100019.66
2023-01-07T15:41:32.857Z,100027.34
2023-01-07T15:44:02.185Z,100018.34
2023-01-07T15:46:30.220Z,100023.09
2023-01-07T15:49:09.059Z,100021.91
2023-01-07T15:51:40.508Z,100015.50
2023-01-07T15:54:23.954Z,100015.50
2023-01-07T15:56:52.943Z,100025.56
2023-01-07T15:59:25.396Z,100016.47
2023-01-07T16:01:54.607Z,100008.31
2023-01-07T16:04:31.281Z,100012.31
2023-01-07T16:06:59.328Z,100009.59
2023-01-07T16:09:26.237Z,100006.66
2023-01-07T16:11:52.909Z,100008.03
2023-01-07T16:14:25.322Z,100012.31
2023-01-07T16:17:19.459Z,100008.19
2023-01-07T16:19:46.001Z,100004.16
2023-01-07T16:22:21.101Z,100000.47
2023-01-07T16:24:52.192Z,99997.84
2023-01-07T16:27:28.534Z,99993.00
2023-01-07T16:29:57.566Z,99998.00
2023-01-07T16:32:24.530Z,99990.53
2023-01-07T16:35:08.960Z,99985.31
2023-01-07T16:37:38.946Z,99984.03
2023-01-07T16:40:13.163Z,99978.81
2023-01-07T16:42:41.409Z,99975.03
2023-01-07T16:45:22.261Z,99976.81
2023-01-07T16:48:00.121Z,99973.00
2023-01-07T16:50:35.896Z,99973.13
2023-01-07T16:53:02.280Z,99973.19
2023-01-07T16:55:54.428Z,99965.41
2023-01-07T16:58:30.999Z,99966.25
2023-01-07T17:00:59.850Z,99974.44
2023-01-07T17:03:26.876Z,99968.56
2023-01-07T17:06:02.484Z,99966.03
2023-01-07T17:08:29.848Z,99961.69
2023-01-07T17:10:58.899Z,99964.09
2023-01-07T17:13:25.127Z,99959.41
2023-01-07T17:15:51.657Z,99958.53
2023-01-07T17:18:18.109Z,99950.25
2023-01-07T17:20:47.546Z,99949.56
2023-01-07T17:23:26.148Z,99951.63
2023-01-07T17:25:58.029Z,99946.91
2023-01-07T17:28:25.872Z,99952.31
2023-01-07T17:30:52.166Z,99952.31
2023-01-07T17:33:21.108Z,99940.91
2023-01-07T17:35:47.881Z,99945.19
2023-01-07T17:38:15.173Z,99937.84
2023-01-07T17:40:44.255Z,99943.69
2023-01-07T17:43:37.665Z,99941.75
2023-01-07T17:46:04.926Z,99934.38
2023-01-07T17:48:32.292Z,99936.53
2023-01-07T17:51:00.533Z,99938.50
2023-01-07T17:53:30.478Z,99940.25
2023-01-07T17:55:57.145Z,99940.94
2023-01-07T17:58:26.809Z,99940.66
2023-01-07T18:00:53.809Z,99944.06
2023-01-07T18:03:20.721Z,99940.22
2023-01-07T18:05:47.090Z,99931.13
2023-01-07T18:08:14.507Z,99945.09
2023-01-07T18:11:00.056Z,99934.16
2023-01-07T18:13:28.812Z,99931.50
2023-01-07T18:15:59.014Z,99927.84
2023-01-07T18:18:26.068Z,99928.06
2023-01-07T18:20:54.008Z,99931.00
2023-01-07T18:23:20.734Z,99930.22
2023-01-07T18:25:47.096Z,99931.88
2023-01-07T18:28:13.760Z,99929.53
2023-01-07T18:30:40.432Z,99932.56
2023-01-07T18:33:08.459Z,99934.72
2023-01-07T18:35:35.670Z,99926.13
2023-01-07T18:38:02.160Z,99929.44
2023-01-07T18:40:28.508Z,99932.59
2023-01-07T18:42:56.213Z,99927.44
2023-01-07T18:45:23.011Z,99919.31
2023-01-07T18:47:49.816Z,99915.81
2023-01-07T18:50:16.539Z,99911.69
2023-01-07T18:52:43.163Z,99917.47
2023-01-07T18:55:10.458Z,99903.34
2023-01-07T18:57:36.947Z,99902.84
2023-01-07T19:00:07.218Z,99910.50
2023-01-07T19:02:33.773Z,99901.88
2023-01-07T19:05:00.175Z,99908.34
2023-01-07T19:07:26.511Z,99907.88
2023-01-07T19:09:52.878Z,99903.53
2023-01-07T19:12:19.466Z,99902.84
2023-01-07T19:14:45.903Z,99899.19
2023-01-07T19:17:12.228Z,99889.91
2023-01-07T19:19:47.964Z,99893.75
2023-01-07T19:22:15.878Z,99895.41
2023-01-07T19:24:43.433Z,99887.59
2023-01-07T19:27:10.302Z,99889.25
2023-01-07T19:29:36.677Z,99885.44
2023-01-07T19:32:03.099Z,99891.25
2023-01-07T19:34:29.547Z,99885.09
2023-01-07T19:36:55.993Z,99886.25
2023-01-07T19:39:23.296Z,99895.91
2023-01-07T19:41:50.411Z,99895.53
2023-01-07T19:44:17.020Z,99891.06
2023-01-07T19:46:43.977Z,99890.25
2023-01-07T19:49:11.446Z,99884.28
2023-01-07T19:51:39.598Z,99887.75
2023-01-07T19:54:06.908Z,99880.44
2023-01-07T19:56:33.493Z,99877.63
2023-01-07T19:59:00.298Z,99890.75
2023-01-07T20:01:28.422Z,99878.94
2023-01-07T20:03:56.061Z,99875.63
2023-01-07T20:06:28.549Z,99879.91
2023-01-07T20:08:56.472Z,99875.59
2023-01-07T20:11:23.716Z,99876.75
2023-01-07T20:13:50.775Z,99878.09
2023-01-07T20:16:18.443Z,99875.28
2023-01-07T20:18:47.364Z,99877.13
2023-01-07T20:21:16.302Z,99871.16
2023-01-07T20:23:42.789Z,99866.84
2023-01-07T20:26:11.874Z,99859.22
2023-01-07T20:28:38.402Z,99871.00
2023-01-07T20:31:09.258Z,99859.22
2023-01-07T20:33:35.699Z,99874.81
2023-01-07T20:36:04.051Z,99883.13
2023-01-07T20:38:30.419Z,99887.59
2023-01-07T20:40:57.040Z,99873.16
2023-01-07T20:43:24.406Z,99875.81
2023-01-07T20:45:50.835Z,99870.16
2023-01-07T20:48:17.377Z,99871.81
2023-01-07T20:50:43.807Z,99863.03
2023-01-07T20:53:10.688Z,99856.72
2023-01-07T20:55:37.148Z,99865.19
2023-01-07T20:58:03.763Z,99857.53
2023-01-07T21:00:30.208Z,99863.84
2023-01-07T21:02:56.660Z,99861.22
2023-01-07T21:05:24.351Z,99857.88
2023-01-07T21:07:51.489Z,99847.56
2023-01-07T21:10:18.905Z,99855.22
2023-01-07T21:12:46.291Z,99849.91
2023-01-07T21:15:14.888Z,99843.94
2023-01-07T21:17:41.624Z,99838.44
2023-01-07T21:20:11.348Z,99838.28
2023-01-07T21:22:38.811Z,99826.31
2023-01-07T21:25:08.652Z,99834.94
2023-01-07T21:27:35.223Z,99836.75
2023-01-07T21:30:03.687Z,99841.72
2023-01-07T21:32:31.433Z,99835.72
2023-01-07T21:34:57.785Z,99827.91
2023-01-07T21:37:24.277Z,99831.91
2023-01-07T21:39:51.304Z,99828.91
2023-01-07T21:42:17.745Z,99812.47
2023-01-07T21:44:44.269Z,99826.25
2023-01-07T21:47:10.762Z,99797.97
2023-01-07T21:49:37.129Z,99804.44
2023-01-07T21:52:03.524Z,99805.03
2023-01-07T21:54:29.936Z,99800.00
2023-01-07T21:56:56.278Z,99809.81
2023-01-07T21:59:22.667Z,99803.63
2023-01-07T22:01:49.195Z,99806.16
2023-01-07T22:04:15.967Z,99808.97
2023-01-07T22:06:42.504Z,99809.81
2023-01-07T22:09:13.887Z,99808.81
2023-01-07T22:11:41.764Z,99807.91
2023-01-07T22:14:09.759Z,99803.44
2023-01-07T22:16:36.149Z,99804.91
2023-01-07T22:19:02.855Z,99811.56
2023-01-07T22:21:30.501Z,99809.56
2023-01-07T22:23:56.883Z,99798.75
2023-01-07T22:26:23.597Z,99819.66
2023-01-07T22:28:52.994Z,99820.03
2023-01-07T22:31:20.716Z,99817.81
2023-01-07T22:33:47.154Z,99816.81
2023-01-07T22:36:16.022Z,99820.63
2023-01-07T22:38:42.375Z,99818.97
2023-01-07T22:41:09.205Z,99812.50
2023-01-07T22:43:36.447Z,99814.38
2023-01-07T22:46:07.670Z,99815.03
2023-01-07T22:48:35.534Z,99817.38
2023-01-07T22:51:15.295Z,99814.41
2023-01-07T22:53:41.714Z,99811.41
2023-01-07T22:56:08.210Z,99802.47
2023-01-07T22:58:34.611Z,99803.75
2023-01-07T23:01:03.993Z,99807.78
2023-01-07T23:03:30.460Z,99812.31
2023-01-07T23:05:56.916Z,99798.31
2023-01-07T23:08:23.425Z,99801.97
2023-01-07T23:10:49.766Z,99791.50
2023-01-07T23:13:16.137Z,99794.34
2023-01-07T23:15:42.513Z,99789.84
2023-01-07T23:18:09.794Z,99788.34
2023-01-07T23:20:40.861Z,99781.03
2023-01-07T23:23:07.618Z,99772.22
2023-01-07T23:25:35.377Z,99769.03
2023-01-07T23:28:01.906Z,99768.22
2023-01-07T23:30:28.286Z,99764.84
2023-01-07T23:32:54.641Z,99762.84
2023-01-07T23:35:21.101Z,99754.84
2023-01-07T23:37:47.479Z,99748.38
2023-01-07T23:40:13.925Z,99749.34
2023-01-07T23:42:40.883Z,99748.84
2023-01-07T23:45:07.657Z,99742.88
2023-01-07T23:47:34.153Z,99745.69
2023-01-07T23:50:00.544Z,99745.06
2023-01-07T23:52:26.966Z,99742.03
2023-01-07T23:54:53.352Z,99744.53
2023-01-07T23:57:19.763Z,99735.22
2023-01-07T23:59:46.127Z,99726.84
